sensor_id;sensor_type;location;lat;lon;timestamp;P1;durP1;ratioP1;P2;durP2;ratioP2
67640;SDS011;54434;50.096;20.082;2022-12-18T00:00:22;43.20;;;14.80;;
67640;SDS011;54434;50.096;20.082;2022-12-18T00:03:24;32.00;;;9.30;;
67640;SDS011;54434;50.096;20.082;2022-12-18T00:06:01;40.90;;;15.10;;
67640;SDS011;54434;50.096;20.082;2022-12-18T00:08:37;31.30;;;11.50;;
67640;SDS011;54434;50.096;20.082;2022-12-18T00:11:17;40.40;;;12.00;;
67640;SDS011;54434;50.096;20.082;2022-12-18T00:13:56;44.40;;;13.80;;
67640;SDS011;54434;50.096;20.082;2022-12-18T00:16:33;39.80;;;15.70;;
67640;SDS011;54434;50.096;20.082;2022-12-18T00:19:11;42.10;;;12.10;;
67640;SDS011;54434;50.096;20.082;2022-12-18T00:21:48;42.40;;;13.50;;
67640;SDS011;54434;50.096;20.082;2022-12-18T00:24:24;35.80;;;12.10;;
67640;SDS011;54434;50.096;20.082;2022-12-18T00:27:00;44.90;;;15.10;;
67640;SDS011;54434;50.096;20.082;2022-12-18T00:29:37;37.60;;;13.10;;
67640;SDS011;54434;50.096;20.082;2022-12-18T00:32:14;45.50;;;13.30;;
67640;SDS011;54434;50.096;20.082;2022-12-18T00:34:50;38.40;;;13.30;;
67640;SDS011;54434;50.096;20.082;2022-12-18T00:37:26;50.30;;;15.40;;
67640;SDS011;54434;50.096;20.082;2022-12-18T00:40:03;43.10;;;12.70;;
67640;SDS011;54434;50.096;20.082;2022-12-18T00:42:40;45.30;;;14.20;;
67640;SDS011;54434;50.096;20.082;2022-12-18T00:45:32;38.70;;;13.80;;
67640;SDS011;54434;50.096;20.082;2022-12-18T00:48:09;38.50;;;14.80;;
67640;SDS011;54434;50.096;20.082;2022-12-18T00:50:45;40.20;;;13.50;;
67640;SDS011;54434;50.096;20.082;2022-12-18T00:53:23;49.80;;;17.00;;
67640;SDS011;54434;50.096;20.082;2022-12-18T00:55:59;45.20;;;14.40;;
67640;SDS011;54434;50.096;20.082;2022-12-18T00:58:35;49.80;;;16.20;;
67640;SDS011;54434;50.096;20.082;2022-12-18T01:01:11;40.90;;;13.60;;
67640;SDS011;54434;50.096;20.082;2022-12-18T01:03:47;34.40;;;11.90;;
67640;SDS011;54434;50.096;20.082;2022-12-18T01:06:25;45.00;;;13.70;;
67640;SDS011;54434;50.096;20.082;2022-12-18T01:09:01;25.80;;;10.00;;
67640;SDS011;54434;50.096;20.082;2022-12-18T01:11:41;26.60;;;9.90;;
67640;SDS011;54434;50.096;20.082;2022-12-18T01:14:17;30.90;;;11.30;;
67640;SDS011;54434;50.096;20.082;2022-12-18T01:16:53;29.60;;;9.60;;
67640;SDS011;54434;50.096;20.082;2022-12-18T01:19:28;28.80;;;9.20;;
67640;SDS011;54434;50.096;20.082;2022-12-18T01:22:05;24.10;;;9.50;;
67640;SDS011;54434;50.096;20.082;2022-12-18T01:24:41;21.20;;;8.80;;
67640;SDS011;54434;50.096;20.082;2022-12-18T01:27:17;21.40;;;8.50;;
67640;SDS011;54434;50.096;20.082;2022-12-18T01:29:53;23.10;;;9.10;;
67640;SDS011;54434;50.096;20.082;2022-12-18T01:32:32;24.00;;;8.80;;
67640;SDS011;54434;50.096;20.082;2022-12-18T01:35:10;23.60;;;7.40;;
67640;SDS011;54434;50.096;20.082;2022-12-18T01:37:45;24.00;;;8.60;;
67640;SDS011;54434;50.096;20.082;2022-12-18T01:40:22;23.10;;;8.90;;
67640;SDS011;54434;50.096;20.082;2022-12-18T01:42:58;21.30;;;8.50;;
67640;SDS011;54434;50.096;20.082;2022-12-18T01:45:34;23.20;;;8.70;;
67640;SDS011;54434;50.096;20.082;2022-12-18T01:48:10;21.90;;;8.30;;
67640;SDS011;54434;50.096;20.082;2022-12-18T01:50:46;25.80;;;9.90;;
67640;SDS011;54434;50.096;20.082;2022-12-18T01:53:24;22.10;;;8.80;;
67640;SDS011;54434;50.096;20.082;2022-12-18T01:56:00;20.00;;;7.90;;
67640;SDS011;54434;50.096;20.082;2022-12-18T01:58:44;24.70;;;10.30;;
67640;SDS011;54434;50.096;20.082;2022-12-18T02:01:25;19.00;;;7.10;;
67640;SDS011;54434;50.096;20.082;2022-12-18T02:04:23;24.10;;;9.40;;
67640;SDS011;54434;50.096;20.082;2022-12-18T02:07:09;25.10;;;9.40;;
67640;SDS011;54434;50.096;20.082;2022-12-18T02:09:53;25.80;;;9.50;;
67640;SDS011;54434;50.096;20.082;2022-12-18T02:12:40;19.20;;;8.20;;
67640;SDS011;54434;50.096;20.082;2022-12-18T02:15:30;27.00;;;10.20;;
67640;SDS011;54434;50.096;20.082;2022-12-18T02:18:13;25.80;;;9.80;;
67640;SDS011;54434;50.096;20.082;2022-12-18T02:21:00;26.80;;;8.70;;
67640;SDS011;54434;50.096;20.082;2022-12-18T02:23:55;25.20;;;8.90;;
67640;SDS011;54434;50.096;20.082;2022-12-18T02:26:43;22.60;;;8.70;;
67640;SDS011;54434;50.096;20.082;2022-12-18T02:29:25;25.60;;;9.80;;
67640;SDS011;54434;50.096;20.082;2022-12-18T02:32:08;27.10;;;9.60;;
67640;SDS011;54434;50.096;20.082;2022-12-18T02:34:48;21.30;;;8.30;;
67640;SDS011;54434;50.096;20.082;2022-12-18T02:37:28;24.10;;;8.70;;
67640;SDS011;54434;50.096;20.082;2022-12-18T02:40:10;23.90;;;8.90;;
67640;SDS011;54434;50.096;20.082;2022-12-18T02:42:48;29.40;;;9.50;;
67640;SDS011;54434;50.096;20.082;2022-12-18T02:45:24;30.10;;;9.70;;
67640;SDS011;54434;50.096;20.082;2022-12-18T02:48:00;18.80;;;7.90;;
67640;SDS011;54434;50.096;20.082;2022-12-18T02:50:44;16.00;;;6.40;;
67640;SDS011;54434;50.096;20.082;2022-12-18T02:53:31;18.50;;;7.60;;
67640;SDS011;54434;50.096;20.082;2022-12-18T02:56:17;19.50;;;8.20;;
67640;SDS011;54434;50.096;20.082;2022-12-18T02:59:00;18.20;;;7.80;;
67640;SDS011;54434;50.096;20.082;2022-12-18T03:01:52;18.60;;;6.80;;
67640;SDS011;54434;50.096;20.082;2022-12-18T03:04:42;22.30;;;8.30;;
67640;SDS011;54434;50.096;20.082;2022-12-18T03:07:28;24.30;;;8.60;;
67640;SDS011;54434;50.096;20.082;2022-12-18T03:10:18;20.70;;;7.90;;
67640;SDS011;54434;50.096;20.082;2022-12-18T03:13:02;22.40;;;8.40;;
67640;SDS011;54434;50.096;20.082;2022-12-18T03:15:44;19.60;;;8.30;;
67640;SDS011;54434;50.096;20.082;2022-12-18T03:18:25;23.40;;;8.70;;
67640;SDS011;54434;50.096;20.082;2022-12-18T03:21:07;20.50;;;7.80;;
67640;SDS011;54434;50.096;20.082;2022-12-18T03:23:48;24.50;;;8.60;;
67640;SDS011;54434;50.096;20.082;2022-12-18T03:26:27;22.00;;;8.80;;
67640;SDS011;54434;50.096;20.082;2022-12-18T03:29:09;28.10;;;10.50;;
67640;SDS011;54434;50.096;20.082;2022-12-18T03:31:51;24.20;;;9.30;;
67640;SDS011;54434;50.096;20.082;2022-12-18T03:34:34;24.20;;;10.70;;
67640;SDS011;54434;50.096;20.082;2022-12-18T03:37:13;26.70;;;10.10;;
67640;SDS011;54434;50.096;20.082;2022-12-18T03:39:49;30.30;;;11.30;;
67640;SDS011;54434;50.096;20.082;2022-12-18T03:42:32;25.00;;;10.30;;
67640;SDS011;54434;50.096;20.082;2022-12-18T03:45:22;36.40;;;11.60;;
67640;SDS011;54434;50.096;20.082;2022-12-18T03:48:05;36.70;;;12.30;;
67640;SDS011;54434;50.096;20.082;2022-12-18T03:50:53;34.60;;;13.50;;
67640;SDS011;54434;50.096;20.082;2022-12-18T03:53:41;28.90;;;11.00;;
67640;SDS011;54434;50.096;20.082;2022-12-18T03:56:28;33.20;;;11.90;;
67640;SDS011;54434;50.096;20.082;2022-12-18T03:59:07;33.10;;;11.50;;
67640;SDS011;54434;50.096;20.082;2022-12-18T04:01:47;26.60;;;11.00;;
67640;SDS011;54434;50.096;20.082;2022-12-18T04:04:28;33.10;;;11.30;;
67640;SDS011;54434;50.096;20.082;2022-12-18T04:07:09;30.10;;;10.90;;
67640;SDS011;54434;50.096;20.082;2022-12-18T04:09:49;28.00;;;11.40;;
67640;SDS011;54434;50.096;20.082;2022-12-18T04:12:30;34.50;;;11.40;;
67640;SDS011;54434;50.096;20.082;2022-12-18T04:15:08;35.10;;;12.40;;
67640;SDS011;54434;50.096;20.082;2022-12-18T04:17:48;39.90;;;13.40;;
67640;SDS011;54434;50.096;20.082;2022-12-18T04:20:27;32.60;;;12.00;;
67640;SDS011;54434;50.096;20.082;2022-12-18T04:23:04;33.00;;;13.10;;
67640;SDS011;54434;50.096;20.082;2022-12-18T04:25:40;49.50;;;15.90;;
67640;SDS011;54434;50.096;20.082;2022-12-18T04:28:20;43.40;;;14.70;;
67640;SDS011;54434;50.096;20.082;2022-12-18T04:30:56;39.00;;;13.40;;
67640;SDS011;54434;50.096;20.082;2022-12-18T04:33:32;46.40;;;14.10;;
67640;SDS011;54434;50.096;20.082;2022-12-18T04:36:10;42.70;;;15.70;;
67640;SDS011;54434;50.096;20.082;2022-12-18T04:38:46;45.50;;;16.10;;
67640;SDS011;54434;50.096;20.082;2022-12-18T04:41:22;42.40;;;13.70;;
67640;SDS011;54434;50.096;20.082;2022-12-18T04:43:58;41.70;;;12.90;;
67640;SDS011;54434;50.096;20.082;2022-12-18T04:46:34;36.20;;;13.00;;
67640;SDS011;54434;50.096;20.082;2022-12-18T04:49:11;34.20;;;12.10;;
67640;SDS011;54434;50.096;20.082;2022-12-18T04:51:47;38.70;;;13.60;;
67640;SDS011;54434;50.096;20.082;2022-12-18T04:54:23;34.50;;;12.40;;
67640;SDS011;54434;50.096;20.082;2022-12-18T04:56:59;37.90;;;11.60;;
67640;SDS011;54434;50.096;20.082;2022-12-18T04:59:35;36.00;;;12.00;;
67640;SDS011;54434;50.096;20.082;2022-12-18T05:02:12;38.40;;;12.30;;
67640;SDS011;54434;50.096;20.082;2022-12-18T05:04:48;34.80;;;12.40;;
67640;SDS011;54434;50.096;20.082;2022-12-18T05:07:24;49.70;;;13.90;;
67640;SDS011;54434;50.096;20.082;2022-12-18T05:10:00;38.80;;;11.80;;
67640;SDS011;54434;50.096;20.082;2022-12-18T05:12:38;37.00;;;11.80;;
67640;SDS011;54434;50.096;20.082;2022-12-18T05:15:29;45.10;;;13.90;;
67640;SDS011;54434;50.096;20.082;2022-12-18T05:18:07;37.20;;;13.60;;
67640;SDS011;54434;50.096;20.082;2022-12-18T05:20:43;34.10;;;12.30;;
67640;SDS011;54434;50.096;20.082;2022-12-18T05:23:19;45.40;;;13.30;;
67640;SDS011;54434;50.096;20.082;2022-12-18T05:25:58;40.60;;;14.70;;
67640;SDS011;54434;50.096;20.082;2022-12-18T05:28:37;34.50;;;12.30;;
67640;SDS011;54434;50.096;20.082;2022-12-18T05:31:13;45.10;;;14.30;;
67640;SDS011;54434;50.096;20.082;2022-12-18T05:33:52;29.20;;;9.90;;
67640;SDS011;54434;50.096;20.082;2022-12-18T05:36:28;38.40;;;13.00;;
67640;SDS011;54434;50.096;20.082;2022-12-18T05:39:04;44.00;;;13.60;;
67640;SDS011;54434;50.096;20.082;2022-12-18T05:41:40;40.10;;;13.70;;
67640;SDS011;54434;50.096;20.082;2022-12-18T05:44:16;41.30;;;13.00;;
67640;SDS011;54434;50.096;20.082;2022-12-18T05:46:52;38.40;;;11.70;;
67640;SDS011;54434;50.096;20.082;2022-12-18T05:49:29;34.20;;;12.00;;
67640;SDS011;54434;50.096;20.082;2022-12-18T05:52:05;42.10;;;13.50;;
67640;SDS011;54434;50.096;20.082;2022-12-18T05:54:42;38.70;;;13.60;;
67640;SDS011;54434;50.096;20.082;2022-12-18T05:57:17;45.20;;;15.20;;
67640;SDS011;54434;50.096;20.082;2022-12-18T05:59:53;47.90;;;13.80;;
67640;SDS011;54434;50.096;20.082;2022-12-18T06:02:29;27.10;;;10.10;;
67640;SDS011;54434;50.096;20.082;2022-12-18T06:05:07;39.20;;;13.90;;
67640;SDS011;54434;50.096;20.082;2022-12-18T06:07:44;38.70;;;11.50;;
67640;SDS011;54434;50.096;20.082;2022-12-18T06:10:20;35.90;;;12.30;;
67640;SDS011;54434;50.096;20.082;2022-12-18T06:12:56;43.60;;;13.00;;
67640;SDS011;54434;50.096;20.082;2022-12-18T06:15:31;43.60;;;12.70;;
67640;SDS011;54434;50.096;20.082;2022-12-18T06:18:10;26.50;;;9.20;;
67640;SDS011;54434;50.096;20.082;2022-12-18T06:20:51;37.80;;;11.90;;
67640;SDS011;54434;50.096;20.082;2022-12-18T06:23:30;44.50;;;14.90;;
67640;SDS011;54434;50.096;20.082;2022-12-18T06:26:10;34.80;;;11.00;;
67640;SDS011;54434;50.096;20.082;2022-12-18T06:28:46;38.60;;;13.00;;
67640;SDS011;54434;50.096;20.082;2022-12-18T06:31:22;31.40;;;11.40;;
67640;SDS011;54434;50.096;20.082;2022-12-18T06:33:59;34.50;;;11.30;;
67640;SDS011;54434;50.096;20.082;2022-12-18T06:36:37;30.80;;;10.80;;
67640;SDS011;54434;50.096;20.082;2022-12-18T06:39:13;39.10;;;12.60;;
67640;SDS011;54434;50.096;20.082;2022-12-18T06:41:49;44.40;;;14.60;;
67640;SDS011;54434;50.096;20.082;2022-12-18T06:44:25;39.50;;;13.10;;
67640;SDS011;54434;50.096;20.082;2022-12-18T06:47:01;34.80;;;12.10;;
67640;SDS011;54434;50.096;20.082;2022-12-18T06:49:37;43.10;;;11.90;;
67640;SDS011;54434;50.096;20.082;2022-12-18T06:52:13;41.40;;;13.10;;
67640;SDS011;54434;50.096;20.082;2022-12-18T06:54:49;43.50;;;13.70;;
67640;SDS011;54434;50.096;20.082;2022-12-18T06:57:26;46.30;;;13.90;;
67640;SDS011;54434;50.096;20.082;2022-12-18T07:00:02;47.30;;;13.40;;
67640;SDS011;54434;50.096;20.082;2022-12-18T07:02:40;40.00;;;12.10;;
67640;SDS011;54434;50.096;20.082;2022-12-18T07:05:17;43.70;;;13.70;;
67640;SDS011;54434;50.096;20.082;2022-12-18T07:07:53;41.20;;;14.80;;
67640;SDS011;54434;50.096;20.082;2022-12-18T07:10:29;41.90;;;15.20;;
67640;SDS011;54434;50.096;20.082;2022-12-18T07:13:05;38.00;;;12.80;;
67640;SDS011;54434;50.096;20.082;2022-12-18T07:15:40;46.10;;;14.80;;
67640;SDS011;54434;50.096;20.082;2022-12-18T07:18:17;46.20;;;13.70;;
67640;SDS011;54434;50.096;20.082;2022-12-18T07:20:53;40.40;;;13.60;;
67640;SDS011;54434;50.096;20.082;2022-12-18T07:23:29;36.70;;;12.60;;
67640;SDS011;54434;50.096;20.082;2022-12-18T07:26:08;46.70;;;14.30;;
67640;SDS011;54434;50.096;20.082;2022-12-18T07:28:45;39.70;;;10.40;;
67640;SDS011;54434;50.096;20.082;2022-12-18T07:31:23;36.30;;;12.20;;
67640;SDS011;54434;50.096;20.082;2022-12-18T07:34:00;44.80;;;14.30;;
67640;SDS011;54434;50.096;20.082;2022-12-18T07:36:36;38.60;;;13.80;;
67640;SDS011;54434;50.096;20.082;2022-12-18T07:39:13;34.30;;;12.30;;
67640;SDS011;54434;50.096;20.082;2022-12-18T07:41:49;41.30;;;13.80;;
67640;SDS011;54434;50.096;20.082;2022-12-18T07:44:39;38.40;;;14.00;;
67640;SDS011;54434;50.096;20.082;2022-12-18T07:47:15;36.30;;;13.70;;
67640;SDS011;54434;50.096;20.082;2022-12-18T07:49:51;43.00;;;15.00;;
67640;SDS011;54434;50.096;20.082;2022-12-18T07:52:27;47.40;;;16.40;;
67640;SDS011;54434;50.096;20.082;2022-12-18T07:55:04;45.90;;;14.70;;
67640;SDS011;54434;50.096;20.082;2022-12-18T07:57:41;48.40;;;15.80;;
67640;SDS011;54434;50.096;20.082;2022-12-18T08:00:28;44.10;;;16.70;;
67640;SDS011;54434;50.096;20.082;2022-12-18T08:03:04;42.40;;;15.80;;
67640;SDS011;54434;50.096;20.082;2022-12-18T08:05:40;46.70;;;16.80;;
67640;SDS011;54434;50.096;20.082;2022-12-18T08:08:16;50.20;;;16.90;;
67640;SDS011;54434;50.096;20.082;2022-12-18T08:10:52;49.10;;;16.90;;
67640;SDS011;54434;50.096;20.082;2022-12-18T08:13:29;44.60;;;15.30;;
67640;SDS011;54434;50.096;20.082;2022-12-18T08:16:07;46.40;;;16.00;;
67640;SDS011;54434;50.096;20.082;2022-12-18T08:18:43;46.30;;;14.80;;
67640;SDS011;54434;50.096;20.082;2022-12-18T08:21:22;45.30;;;15.40;;
67640;SDS011;54434;50.096;20.082;2022-12-18T08:24:00;40.10;;;14.00;;
67640;SDS011;54434;50.096;20.082;2022-12-18T08:26:37;41.80;;;14.80;;
67640;SDS011;54434;50.096;20.082;2022-12-18T08:29:13;40.50;;;16.10;;
67640;SDS011;54434;50.096;20.082;2022-12-18T08:31:53;47.70;;;14.70;;
67640;SDS011;54434;50.096;20.082;2022-12-18T08:34:29;42.30;;;15.50;;
67640;SDS011;54434;50.096;20.082;2022-12-18T08:37:05;44.90;;;15.80;;
67640;SDS011;54434;50.096;20.082;2022-12-18T08:39:41;37.70;;;14.20;;
67640;SDS011;54434;50.096;20.082;2022-12-18T08:42:18;88.80;;;34.80;;
67640;SDS011;54434;50.096;20.082;2022-12-18T08:45:12;40.60;;;16.00;;
67640;SDS011;54434;50.096;20.082;2022-12-18T08:47:48;41.40;;;14.70;;
67640;SDS011;54434;50.096;20.082;2022-12-18T08:50:24;43.50;;;15.30;;
67640;SDS011;54434;50.096;20.082;2022-12-18T08:53:00;34.40;;;13.70;;
67640;SDS011;54434;50.096;20.082;2022-12-18T08:55:36;43.50;;;15.30;;
67640;SDS011;54434;50.096;20.082;2022-12-18T08:58:14;47.00;;;15.90;;
67640;SDS011;54434;50.096;20.082;2022-12-18T09:00:51;41.20;;;15.30;;
67640;SDS011;54434;50.096;20.082;2022-12-18T09:03:27;39.70;;;14.40;;
67640;SDS011;54434;50.096;20.082;2022-12-18T09:06:04;39.50;;;15.00;;
67640;SDS011;54434;50.096;20.082;2022-12-18T09:08:41;38.40;;;15.40;;
67640;SDS011;54434;50.096;20.082;2022-12-18T09:11:24;37.30;;;14.00;;
67640;SDS011;54434;50.096;20.082;2022-12-18T09:14:02;41.20;;;16.10;;
67640;SDS011;54434;50.096;20.082;2022-12-18T09:16:38;41.40;;;16.10;;
67640;SDS011;54434;50.096;20.082;2022-12-18T09:19:16;39.50;;;15.10;;
67640;SDS011;54434;50.096;20.082;2022-12-18T09:21:52;38.00;;;15.10;;
67640;SDS011;54434;50.096;20.082;2022-12-18T09:24:28;41.40;;;16.30;;
67640;SDS011;54434;50.096;20.082;2022-12-18T09:27:04;42.00;;;16.60;;
67640;SDS011;54434;50.096;20.082;2022-12-18T09:29:40;39.30;;;16.20;;
67640;SDS011;54434;50.096;20.082;2022-12-18T09:32:17;37.00;;;14.60;;
67640;SDS011;54434;50.096;20.082;2022-12-18T09:34:54;41.40;;;16.30;;
67640;SDS011;54434;50.096;20.082;2022-12-18T09:37:30;37.60;;;15.00;;
67640;SDS011;54434;50.096;20.082;2022-12-18T09:40:14;41.60;;;15.70;;
67640;SDS011;54434;50.096;20.082;2022-12-18T09:42:55;35.10;;;14.40;;
67640;SDS011;54434;50.096;20.082;2022-12-18T09:45:40;43.50;;;15.70;;
67640;SDS011;54434;50.096;20.082;2022-12-18T09:48:25;36.90;;;15.50;;
67640;SDS011;54434;50.096;20.082;2022-12-18T09:51:11;39.30;;;16.30;;
67640;SDS011;54434;50.096;20.082;2022-12-18T09:53:55;35.80;;;16.20;;
67640;SDS011;54434;50.096;20.082;2022-12-18T09:56:41;41.60;;;16.20;;
67640;SDS011;54434;50.096;20.082;2022-12-18T09:59:25;38.90;;;15.90;;
67640;SDS011;54434;50.096;20.082;2022-12-18T10:02:20;37.70;;;16.10;;
67640;SDS011;54434;50.096;20.082;2022-12-18T10:07:55;49.80;;;15.80;;
67640;SDS011;54434;50.096;20.082;2022-12-18T10:10:42;44.00;;;16.30;;
67640;SDS011;54434;50.096;20.082;2022-12-18T10:13:33;50.60;;;18.40;;
67640;SDS011;54434;50.096;20.082;2022-12-18T10:19:26;39.60;;;15.10;;
67640;SDS011;54434;50.096;20.082;2022-12-18T10:22:24;45.10;;;15.70;;
67640;SDS011;54434;50.096;20.082;2022-12-18T10:25:18;46.80;;;17.20;;
67640;SDS011;54434;50.096;20.082;2022-12-18T10:28:09;43.60;;;15.00;;
67640;SDS011;54434;50.096;20.082;2022-12-18T10:30:48;52.10;;;18.50;;
67640;SDS011;54434;50.096;20.082;2022-12-18T10:33:28;42.40;;;16.90;;
67640;SDS011;54434;50.096;20.082;2022-12-18T10:36:06;49.00;;;18.40;;
67640;SDS011;54434;50.096;20.082;2022-12-18T10:38:44;44.90;;;16.70;;
67640;SDS011;54434;50.096;20.082;2022-12-18T10:41:29;45.10;;;17.30;;
67640;SDS011;54434;50.096;20.082;2022-12-18T10:44:20;43.90;;;17.00;;
67640;SDS011;54434;50.096;20.082;2022-12-18T10:47:06;39.20;;;15.60;;
67640;SDS011;54434;50.096;20.082;2022-12-18T10:49:54;41.10;;;17.00;;
67640;SDS011;54434;50.096;20.082;2022-12-18T10:52:30;37.00;;;15.30;;
67640;SDS011;54434;50.096;20.082;2022-12-18T10:55:17;41.20;;;15.70;;
67640;SDS011;54434;50.096;20.082;2022-12-18T10:57:55;40.10;;;15.90;;
67640;SDS011;54434;50.096;20.082;2022-12-18T11:01:11;44.40;;;18.70;;
67640;SDS011;54434;50.096;20.082;2022-12-18T11:04:07;48.10;;;19.30;;
67640;SDS011;54434;50.096;20.082;2022-12-18T11:06:59;46.10;;;19.60;;
67640;SDS011;54434;50.096;20.082;2022-12-18T11:09:39;39.40;;;16.20;;
67640;SDS011;54434;50.096;20.082;2022-12-18T11:12:21;47.90;;;17.30;;
67640;SDS011;54434;50.096;20.082;2022-12-18T11:17:35;33.70;;;13.30;;
67640;SDS011;54434;50.096;20.082;2022-12-18T11:20:29;33.30;;;14.60;;
67640;SDS011;54434;50.096;20.082;2022-12-18T11:23:14;36.30;;;14.60;;
67640;SDS011;54434;50.096;20.082;2022-12-18T11:25:59;37.40;;;15.10;;
67640;SDS011;54434;50.096;20.082;2022-12-18T11:28:41;34.30;;;14.70;;
67640;SDS011;54434;50.096;20.082;2022-12-18T11:31:26;38.10;;;14.90;;
67640;SDS011;54434;50.096;20.082;2022-12-18T11:34:09;34.20;;;14.10;;
67640;SDS011;54434;50.096;20.082;2022-12-18T11:37:07;33.00;;;13.10;;
67640;SDS011;54434;50.096;20.082;2022-12-18T11:39:49;37.00;;;14.70;;
67640;SDS011;54434;50.096;20.082;2022-12-18T11:42:32;34.70;;;13.40;;
67640;SDS011;54434;50.096;20.082;2022-12-18T11:45:29;39.10;;;13.80;;
67640;SDS011;54434;50.096;20.082;2022-12-18T11:48:16;35.00;;;14.00;;
67640;SDS011;54434;50.096;20.082;2022-12-18T11:50:56;33.60;;;12.60;;
67640;SDS011;54434;50.096;20.082;2022-12-18T11:53:33;40.40;;;14.10;;
67640;SDS011;54434;50.096;20.082;2022-12-18T11:56:29;35.10;;;13.70;;
67640;SDS011;54434;50.096;20.082;2022-12-18T11:59:19;37.80;;;13.70;;
67640;SDS011;54434;50.096;20.082;2022-12-18T12:02:24;36.40;;;12.80;;
67640;SDS011;54434;50.096;20.082;2022-12-18T12:05:35;38.60;;;14.00;;
67640;SDS011;54434;50.096;20.082;2022-12-18T12:08:26;36.60;;;14.00;;
67640;SDS011;54434;50.096;20.082;2022-12-18T12:11:19;44.90;;;15.90;;
67640;SDS011;54434;50.096;20.082;2022-12-18T12:14:18;38.00;;;13.50;;
67640;SDS011;54434;50.096;20.082;2022-12-18T12:17:11;34.80;;;13.20;;
67640;SDS011;54434;50.096;20.082;2022-12-18T12:20:01;32.60;;;12.40;;
67640;SDS011;54434;50.096;20.082;2022-12-18T12:22:52;70.50;;;27.60;;
67640;SDS011;54434;50.096;20.082;2022-12-18T12:25:41;41.80;;;16.50;;
67640;SDS011;54434;50.096;20.082;2022-12-18T12:28:45;35.80;;;13.10;;
67640;SDS011;54434;50.096;20.082;2022-12-18T12:31:46;37.50;;;13.10;;
67640;SDS011;54434;50.096;20.082;2022-12-18T12:34:36;37.50;;;14.00;;
67640;SDS011;54434;50.096;20.082;2022-12-18T12:37:30;36.30;;;13.20;;
67640;SDS011;54434;50.096;20.082;2022-12-18T12:40:17;35.60;;;14.20;;
67640;SDS011;54434;50.096;20.082;2022-12-18T12:43:28;36.50;;;13.80;;
67640;SDS011;54434;50.096;20.082;2022-12-18T12:46:17;37.90;;;13.50;;
67640;SDS011;54434;50.096;20.082;2022-12-18T12:49:00;32.80;;;13.40;;
67640;SDS011;54434;50.096;20.082;2022-12-18T12:51:42;35.80;;;12.50;;
67640;SDS011;54434;50.096;20.082;2022-12-18T12:57:05;37.50;;;12.10;;
67640;SDS011;54434;50.096;20.082;2022-12-18T12:59:57;39.90;;;13.50;;
67640;SDS011;54434;50.096;20.082;2022-12-18T13:02:45;40.00;;;13.30;;
67640;SDS011;54434;50.096;20.082;2022-12-18T13:05:30;43.40;;;14.80;;
67640;SDS011;54434;50.096;20.082;2022-12-18T13:08:25;40.40;;;14.80;;
67640;SDS011;54434;50.096;20.082;2022-12-18T13:11:31;35.40;;;13.60;;
67640;SDS011;54434;50.096;20.082;2022-12-18T13:14:34;36.80;;;12.70;;
67640;SDS011;54434;50.096;20.082;2022-12-18T13:17:30;42.10;;;14.50;;
67640;SDS011;54434;50.096;20.082;2022-12-18T13:20:13;57.40;;;18.80;;
67640;SDS011;54434;50.096;20.082;2022-12-18T13:22:50;55.40;;;16.80;;
67640;SDS011;54434;50.096;20.082;2022-12-18T13:25:35;49.60;;;16.10;;
67640;SDS011;54434;50.096;20.082;2022-12-18T13:28:13;42.00;;;15.60;;
67640;SDS011;54434;50.096;20.082;2022-12-18T13:30:56;43.10;;;14.20;;
67640;SDS011;54434;50.096;20.082;2022-12-18T13:33:43;39.70;;;14.10;;
67640;SDS011;54434;50.096;20.082;2022-12-18T13:36:40;41.50;;;14.90;;
67640;SDS011;54434;50.096;20.082;2022-12-18T13:39:34;40.70;;;13.90;;
67640;SDS011;54434;50.096;20.082;2022-12-18T13:42:43;38.30;;;12.90;;
67640;SDS011;54434;50.096;20.082;2022-12-18T13:45:49;37.70;;;13.40;;
67640;SDS011;54434;50.096;20.082;2022-12-18T13:48:38;37.80;;;13.50;;
67640;SDS011;54434;50.096;20.082;2022-12-18T13:51:24;37.70;;;12.80;;
67640;SDS011;54434;50.096;20.082;2022-12-18T13:54:05;43.60;;;14.90;;
67640;SDS011;54434;50.096;20.082;2022-12-18T13:56:52;67.30;;;25.30;;
67640;SDS011;54434;50.096;20.082;2022-12-18T13:59:34;48.90;;;16.50;;
67640;SDS011;54434;50.096;20.082;2022-12-18T14:02:16;42.60;;;15.80;;
67640;SDS011;54434;50.096;20.082;2022-12-18T14:04:56;45.20;;;14.60;;
67640;SDS011;54434;50.096;20.082;2022-12-18T14:07:32;45.20;;;17.30;;
67640;SDS011;54434;50.096;20.082;2022-12-18T14:10:18;51.40;;;16.40;;
67640;SDS011;54434;50.096;20.082;2022-12-18T14:13:23;52.50;;;17.10;;
67640;SDS011;54434;50.096;20.082;2022-12-18T14:16:05;41.10;;;15.50;;
67640;SDS011;54434;50.096;20.082;2022-12-18T14:18:46;43.70;;;14.60;;
67640;SDS011;54434;50.096;20.082;2022-12-18T14:21:34;48.30;;;17.10;;
67640;SDS011;54434;50.096;20.082;2022-12-18T14:24:18;41.50;;;15.90;;
67640;SDS011;54434;50.096;20.082;2022-12-18T14:26:56;44.40;;;16.00;;
67640;SDS011;54434;50.096;20.082;2022-12-18T14:29:54;53.00;;;17.20;;
67640;SDS011;54434;50.096;20.082;2022-12-18T14:32:31;51.80;;;17.50;;
67640;SDS011;54434;50.096;20.082;2022-12-18T14:35:17;52.20;;;18.10;;
67640;SDS011;54434;50.096;20.082;2022-12-18T14:37:55;55.10;;;17.00;;
67640;SDS011;54434;50.096;20.082;2022-12-18T14:40:57;44.00;;;16.30;;
67640;SDS011;54434;50.096;20.082;2022-12-18T14:43:37;47.80;;;16.20;;
67640;SDS011;54434;50.096;20.082;2022-12-18T14:46:35;49.00;;;16.80;;
67640;SDS011;54434;50.096;20.082;2022-12-18T14:49:26;47.10;;;15.40;;
67640;SDS011;54434;50.096;20.082;2022-12-18T14:52:24;53.70;;;17.40;;
67640;SDS011;54434;50.096;20.082;2022-12-18T14:55:04;71.90;;;25.00;;
67640;SDS011;54434;50.096;20.082;2022-12-18T14:57:50;69.90;;;23.00;;
67640;SDS011;54434;50.096;20.082;2022-12-18T15:00:29;46.50;;;17.00;;
67640;SDS011;54434;50.096;20.082;2022-12-18T15:03:08;57.70;;;16.60;;
67640;SDS011;54434;50.096;20.082;2022-12-18T15:05:48;44.30;;;16.40;;
67640;SDS011;54434;50.096;20.082;2022-12-18T15:08:37;55.90;;;16.50;;
67640;SDS011;54434;50.096;20.082;2022-12-18T15:14:38;64.70;;;20.20;;
67640;SDS011;54434;50.096;20.082;2022-12-18T15:17:21;56.70;;;18.40;;
67640;SDS011;54434;50.096;20.082;2022-12-18T15:20:08;59.20;;;17.90;;
67640;SDS011;54434;50.096;20.082;2022-12-18T15:22:48;55.10;;;16.40;;
67640;SDS011;54434;50.096;20.082;2022-12-18T15:25:34;56.10;;;18.40;;
67640;SDS011;54434;50.096;20.082;2022-12-18T15:28:21;107.00;;;28.30;;
67640;SDS011;54434;50.096;20.082;2022-12-18T15:31:22;82.10;;;20.30;;
67640;SDS011;54434;50.096;20.082;2022-12-18T15:34:18;66.10;;;18.20;;
67640;SDS011;54434;50.096;20.082;2022-12-18T15:36:56;55.80;;;16.80;;
67640;SDS011;54434;50.096;20.082;2022-12-18T15:39:32;54.10;;;18.30;;
67640;SDS011;54434;50.096;20.082;2022-12-18T15:42:11;74.70;;;22.40;;
67640;SDS011;54434;50.096;20.082;2022-12-18T15:45:07;63.40;;;21.40;;
67640;SDS011;54434;50.096;20.082;2022-12-18T15:47:46;68.00;;;24.90;;
67640;SDS011;54434;50.096;20.082;2022-12-18T15:50:22;78.60;;;24.00;;